createdAt,value
2023-04-12T00:00:19.888Z,30.33
2023-04-12T00:02:47.273Z,25.10
2023-04-12T00:05:14.546Z,29.17
2023-04-12T00:07:43.103Z,25.67
2023-04-12T00:10:10.460Z,30.13
2023-04-12T00:12:37.347Z,23.23
2023-04-12T00:15:05.677Z,21.37
2023-04-12T00:17:34.269Z,28.30
2023-04-12T00:20:02.418Z,25.33
2023-04-12T00:22:30.168Z,23.27
2023-04-12T00:24:57.111Z,22.73
2023-04-12T00:27:24.190Z,22.17
2023-04-12T00:29:51.085Z,23.80
2023-04-12T00:32:17.913Z,27.83
2023-04-12T00:34:44.692Z,20.63
2023-04-12T00:37:11.760Z,30.67
2023-04-12T00:39:38.831Z,25.33
2023-04-12T00:42:06.308Z,27.77
2023-04-12T00:44:34.424Z,27.07
2023-04-12T00:47:03.992Z,30.93
2023-04-12T00:49:31.572Z,25.47
2023-04-12T00:52:03.516Z,25.03
2023-04-12T00:54:40.066Z,23.23
2023-04-12T00:57:07.405Z,24.83
2023-04-12T00:59:34.695Z,30.73
2023-04-12T01:02:02.246Z,33.70
2023-04-12T01:04:29.437Z,22.67
2023-04-12T01:07:15.894Z,31.60
2023-04-12T01:10:05.493Z,22.40
2023-04-12T01:12:47.350Z,31.27
2023-04-12T01:15:16.879Z,22.03
2023-04-12T01:18:08.761Z,28.87
2023-04-12T01:20:45.118Z,33.73
2023-04-12T01:23:43.120Z,22.57
2023-04-12T01:26:33.534Z,36.23
2023-04-12T01:29:04.243Z,30.93
2023-04-12T01:31:33.403Z,24.17
2023-04-12T01:34:03.325Z,23.33
2023-04-12T01:36:31.218Z,24.57
2023-04-12T01:38:58.535Z,22.43
2023-04-12T01:41:25.856Z,26.23
2023-04-12T01:43:52.784Z,23.57
2023-04-12T01:46:23.438Z,20.73
2023-04-12T01:48:52.315Z,15.30
2023-04-12T01:51:38.111Z,17.90
2023-04-12T01:54:12.770Z,22.00
2023-04-12T01:56:46.265Z,14.07
2023-04-12T01:59:16.403Z,22.93
2023-04-12T02:01:45.463Z,14.33
2023-04-12T02:04:13.003Z,18.17
2023-04-12T02:06:41.734Z,15.00
2023-04-12T02:09:08.861Z,16.50
2023-04-12T02:11:36.020Z,15.67
2023-04-12T02:14:03.034Z,10.47
2023-04-12T02:16:30.228Z,16.67
2023-04-12T02:18:57.698Z,17.43
2023-04-12T02:21:25.228Z,15.93
2023-04-12T02:23:52.628Z,10.60
2023-04-12T02:26:19.587Z,11.97
2023-04-12T02:28:46.550Z,11.50
2023-04-12T02:31:13.497Z,10.80
2023-04-12T02:33:41.456Z,14.50
2023-04-12T02:36:10.566Z,11.93
2023-04-12T02:38:37.331Z,12.53
2023-04-12T02:41:04.284Z,10.83
2023-04-12T02:43:32.457Z,11.17
2023-04-12T02:45:59.652Z,9.23
2023-04-12T02:48:27.640Z,11.47
2023-04-12T02:50:54.427Z,10.13
2023-04-12T02:53:22.006Z,8.73
2023-04-12T02:55:48.911Z,7.47
2023-04-12T02:58:16.803Z,11.53
2023-04-12T03:00:44.155Z,7.93
2023-04-12T03:03:11.364Z,8.53
2023-04-12T03:05:38.351Z,8.10
2023-04-12T03:08:05.563Z,9.47
2023-04-12T03:10:32.384Z,7.37
2023-04-12T03:12:59.284Z,6.87
2023-04-12T03:15:28.419Z,7.20
2023-04-12T03:17:55.679Z,6.17
2023-04-12T03:20:25.416Z,11.33
2023-04-12T03:22:52.283Z,8.33
2023-04-12T03:25:19.064Z,6.83
2023-04-12T03:27:50.908Z,6.23
2023-04-12T03:30:17.980Z,11.93
2023-04-12T03:32:45.013Z,8.77
2023-04-12T03:35:12.159Z,7.80
2023-04-12T03:37:42.899Z,8.00
2023-04-12T03:40:12.790Z,10.13
2023-04-12T03:42:39.646Z,4.87
2023-04-12T03:45:07.197Z,7.07
2023-04-12T03:47:34.287Z,5.83
2023-04-12T03:50:12.059Z,6.43
2023-04-12T03:52:39.447Z,7.43
2023-04-12T03:55:08.172Z,6.43
2023-04-12T03:57:35.689Z,4.77
2023-04-12T04:00:03.023Z,6.00
2023-04-12T04:02:32.233Z,4.90
2023-04-12T04:04:59.608Z,6.90
2023-04-12T04:07:26.635Z,6.00
2023-04-12T04:09:55.173Z,8.37
2023-04-12T04:12:22.102Z,5.33
2023-04-12T04:14:49.049Z,5.20
2023-04-12T04:17:16.302Z,7.10
2023-04-12T04:19:43.383Z,5.77
2023-04-12T04:22:10.419Z,8.70
2023-04-12T04:24:39.263Z,7.47
2023-04-12T04:27:06.716Z,7.07
2023-04-12T04:29:34.058Z,7.43
2023-04-12T04:32:01.732Z,7.70
2023-04-12T04:34:28.848Z,6.00
2023-04-12T04:36:56.096Z,9.60
2023-04-12T04:39:23.201Z,8.47
2023-04-12T04:41:55.148Z,8.23
2023-04-12T04:44:22.513Z,7.67
2023-04-12T04:46:49.535Z,8.23
2023-04-12T04:49:16.737Z,6.80
2023-04-12T04:51:43.789Z,6.63
2023-04-12T04:54:10.838Z,5.67
2023-04-12T04:56:37.708Z,7.50
2023-04-12T04:59:04.505Z,7.90
2023-04-12T05:01:32.275Z,6.63
2023-04-12T05:03:59.527Z,7.50
2023-04-12T05:06:27.593Z,7.67
2023-04-12T05:08:54.741Z,6.23
2023-04-12T05:11:21.890Z,6.80
2023-04-12T05:13:50.507Z,7.83
2023-04-12T05:16:17.437Z,7.53
2023-04-12T05:18:44.583Z,6.87
2023-04-12T05:21:11.425Z,5.87
2023-04-12T05:23:43.490Z,7.50
2023-04-12T05:26:10.843Z,5.87
2023-04-12T05:28:37.787Z,6.10
2023-04-12T05:31:06.395Z,4.10
2023-04-12T05:33:34.822Z,5.50
2023-04-12T05:36:05.264Z,7.03
2023-04-12T05:38:32.346Z,28.47
2023-04-12T05:40:59.268Z,4.37
2023-04-12T05:43:26.250Z,5.47
2023-04-12T05:45:53.306Z,6.33
2023-04-12T05:48:20.808Z,4.97
2023-04-12T05:50:54.925Z,4.27
2023-04-12T05:53:22.537Z,6.43
2023-04-12T05:55:49.361Z,18.30
2023-04-12T05:58:16.280Z,7.50
2023-04-12T06:00:45.468Z,3.43
2023-04-12T06:03:12.702Z,26.97
2023-04-12T06:05:39.730Z,26.37
2023-04-12T06:08:07.281Z,46.47
2023-04-12T06:10:34.720Z,9.30
2023-04-12T06:13:01.675Z,5.00
2023-04-12T06:15:29.307Z,6.63
2023-04-12T06:17:56.319Z,4.67
2023-04-12T06:20:23.165Z,4.53
2023-04-12T06:22:49.978Z,6.37
2023-04-12T06:25:16.936Z,3.80
2023-04-12T06:27:44.157Z,3.53
2023-04-12T06:30:11.507Z,4.40
2023-04-12T06:32:39.012Z,3.73
2023-04-12T06:35:06.588Z,5.40
2023-04-12T06:37:33.525Z,31.47
2023-04-12T06:40:00.604Z,5.37
2023-04-12T06:42:27.530Z,14.93
2023-04-12T06:44:54.533Z,6.13
2023-04-12T06:47:23.002Z,49.77
2023-04-12T06:49:54.123Z,12.60
2023-04-12T06:52:25.727Z,5.53
2023-04-12T06:54:53.439Z,5.57
2023-04-12T06:57:20.487Z,6.63
2023-04-12T06:59:47.350Z,5.33
2023-04-12T07:02:14.340Z,4.53
2023-04-12T07:04:41.278Z,35.17
2023-04-12T07:07:08.205Z,4.60
2023-04-12T07:09:35.053Z,5.30
2023-04-12T07:12:02.698Z,5.23
2023-04-12T07:14:30.554Z,4.03
2023-04-12T07:16:57.476Z,7.80
2023-04-12T07:19:24.362Z,7.47
2023-04-12T07:21:51.335Z,4.33
2023-04-12T07:24:18.220Z,6.70
2023-04-12T07:26:45.133Z,4.70
2023-04-12T07:29:11.858Z,5.83
2023-04-12T07:31:38.687Z,7.27
2023-04-12T07:34:05.964Z,7.73
2023-04-12T07:36:33.078Z,6.70
2023-04-12T07:39:00.205Z,5.57
2023-04-12T07:41:27.375Z,5.37
2023-04-12T07:43:54.424Z,3.70
2023-04-12T07:46:21.511Z,5.50
2023-04-12T07:48:48.701Z,4.70
2023-04-12T07:51:15.536Z,14.03
2023-04-12T07:53:42.771Z,6.40
2023-04-12T07:56:09.821Z,61.47
2023-04-12T07:58:36.809Z,9.33
2023-04-12T08:01:03.760Z,6.57
2023-04-12T08:03:31.113Z,4.10
2023-04-12T08:05:58.285Z,5.20
2023-04-12T08:08:25.229Z,4.77
2023-04-12T08:10:52.823Z,7.47
2023-04-12T08:13:19.888Z,4.57
2023-04-12T08:15:49.920Z,6.47
2023-04-12T08:18:16.940Z,3.93
2023-04-12T08:20:44.434Z,5.90
2023-04-12T08:23:14.891Z,7.50
2023-04-12T08:25:41.974Z,4.50
2023-04-12T08:28:08.964Z,7.17
2023-04-12T08:30:36.995Z,5.00
2023-04-12T08:33:04.203Z,17.37
2023-04-12T08:35:34.160Z,10.90
2023-04-12T08:38:07.032Z,4.03
2023-04-12T08:40:34.237Z,5.13
2023-04-12T08:43:08.273Z,4.80
2023-04-12T08:45:36.506Z,5.50
2023-04-12T08:48:06.445Z,5.37
2023-04-12T08:50:33.660Z,5.03
2023-04-12T08:53:00.857Z,6.00
2023-04-12T08:55:27.868Z,3.70
2023-04-12T08:57:56.940Z,5.37
2023-04-12T09:00:24.703Z,4.37
2023-04-12T09:02:51.889Z,7.90
2023-04-12T09:05:19.310Z,7.83
2023-04-12T09:07:46.276Z,6.43
2023-04-12T09:10:31.336Z,5.87
2023-04-12T09:12:58.935Z,8.23
2023-04-12T09:15:25.965Z,5.87
2023-04-12T09:18:11.778Z,5.97
2023-04-12T09:20:39.926Z,5.73
2023-04-12T09:23:26.850Z,4.43
2023-04-12T09:25:53.917Z,3.47
2023-04-12T09:28:27.210Z,4.93
2023-04-12T09:30:55.689Z,4.13
2023-04-12T09:33:32.545Z,9.47
2023-04-12T09:36:07.716Z,9.23
2023-04-12T09:38:37.207Z,25.90
2023-04-12T09:41:26.972Z,3.40
2023-04-12T09:43:54.629Z,3.03
2023-04-12T09:46:23.404Z,9.13
2023-04-12T09:48:55.523Z,3.37
2023-04-12T09:51:30.239Z,5.23
2023-04-12T09:54:04.631Z,5.73
2023-04-12T09:56:33.723Z,4.93
2023-04-12T09:59:05.454Z,4.70
2023-04-12T10:01:38.822Z,3.87
2023-04-12T10:04:08.728Z,5.30
2023-04-12T10:06:37.517Z,6.37
2023-04-12T10:09:05.782Z,3.57
2023-04-12T10:11:34.551Z,4.47
2023-04-12T10:14:06.314Z,8.37
2023-04-12T10:16:37.046Z,5.20
2023-04-12T10:19:04.484Z,6.20
2023-04-12T10:21:32.150Z,3.57
2023-04-12T10:23:59.810Z,6.97
2023-04-12T10:26:27.406Z,3.50
2023-04-12T10:29:25.768Z,6.50
2023-04-12T10:31:54.353Z,4.97
2023-04-12T10:34:28.996Z,3.60
2023-04-12T10:36:57.873Z,5.40
2023-04-12T10:39:44.698Z,4.83
2023-04-12T10:42:27.269Z,3.87
2023-04-12T10:45:32.385Z,6.87
2023-04-12T10:48:01.628Z,4.67
2023-04-12T10:50:35.327Z,5.90
2023-04-12T10:53:17.395Z,8.73
2023-04-12T10:55:45.785Z,4.70
2023-04-12T10:58:47.782Z,6.63
2023-04-12T11:01:18.673Z,6.20
2023-04-12T11:04:18.297Z,4.27
2023-04-12T11:06:56.801Z,6.07
2023-04-12T11:09:39.156Z,3.70
2023-04-12T11:12:11.021Z,5.00
2023-04-12T11:14:43.978Z,5.53
2023-04-12T11:17:13.728Z,7.70
2023-04-12T11:19:43.039Z,7.40
2023-04-12T11:22:12.113Z,4.73
2023-04-12T11:24:48.263Z,5.83
2023-04-12T11:27:18.823Z,7.53
2023-04-12T11:29:48.587Z,5.97
2023-04-12T11:32:16.416Z,8.17
2023-04-12T11:34:46.394Z,5.07
2023-04-12T11:37:13.942Z,6.10
2023-04-12T11:39:43.514Z,5.47
2023-04-12T11:42:17.967Z,7.03
2023-04-12T11:47:18.003Z,5.43
2023-04-12T11:49:49.947Z,6.57
2023-04-12T11:52:18.640Z,8.67
2023-04-12T11:54:56.903Z,5.80
2023-04-12T11:57:24.260Z,5.07
2023-04-12T11:59:51.414Z,3.57
2023-04-12T12:02:23.477Z,3.70
2023-04-12T12:04:52.063Z,4.57
2023-04-12T12:07:21.834Z,4.00
2023-04-12T12:09:50.275Z,5.47
2023-04-12T12:12:18.868Z,4.30
2023-04-12T12:14:47.828Z,4.73
2023-04-12T12:17:16.368Z,5.73
2023-04-12T12:19:46.658Z,5.23
2023-04-12T12:22:18.848Z,6.03
2023-04-12T12:24:55.326Z,5.03
2023-04-12T12:27:23.922Z,4.53
2023-04-12T12:29:53.702Z,6.13
2023-04-12T12:32:22.535Z,5.70
2023-04-12T12:34:57.292Z,5.10
2023-04-12T12:37:26.261Z,3.20
2023-04-12T12:40:14.157Z,5.97
2023-04-12T12:42:52.591Z,3.33
2023-04-12T12:45:21.236Z,6.33
2023-04-12T12:47:53.672Z,4.07
2023-04-12T12:50:27.265Z,4.73
2023-04-12T12:52:55.717Z,3.63
2023-04-12T12:55:23.703Z,3.33
2023-04-12T12:58:07.464Z,3.13
2023-04-12T13:00:36.742Z,4.30
2023-04-12T13:03:04.261Z,3.97
2023-04-12T13:05:32.299Z,4.47
2023-04-12T13:07:59.082Z,4.33
2023-04-12T13:10:27.410Z,4.83
2023-04-12T13:12:54.259Z,5.33
2023-04-12T13:15:23.561Z,4.20
2023-04-12T13:17:54.003Z,4.37
2023-04-12T13:20:21.934Z,4.20
2023-04-12T13:22:49.375Z,4.40
2023-04-12T13:25:16.374Z,5.43
2023-04-12T13:27:43.334Z,4.60
2023-04-12T13:30:10.657Z,6.60
2023-04-12T13:32:38.593Z,5.37
2023-04-12T13:35:05.888Z,5.80
2023-04-12T13:37:34.130Z,6.77
2023-04-12T13:40:01.083Z,6.03
2023-04-12T13:42:28.134Z,6.63
2023-04-12T13:44:55.122Z,7.07
2023-04-12T13:47:22.768Z,7.37
2023-04-12T13:49:49.776Z,8.13
2023-04-12T13:52:16.524Z,6.43
2023-04-12T13:54:43.564Z,7.50
2023-04-12T13:57:10.665Z,8.73
2023-04-12T13:59:37.526Z,5.40
2023-04-12T14:02:04.750Z,7.90
2023-04-12T14:04:32.214Z,6.27
2023-04-12T14:06:59.618Z,5.90
2023-04-12T14:09:28.985Z,6.73
2023-04-12T14:11:58.067Z,6.57
2023-04-12T14:14:26.491Z,8.27
2023-04-12T14:16:57.374Z,8.63
2023-04-12T14:19:25.301Z,6.43
2023-04-12T14:21:52.631Z,7.00
2023-04-12T14:24:20.805Z,7.40
2023-04-12T14:26:50.611Z,5.97
2023-04-12T14:29:17.629Z,8.03
2023-04-12T14:31:44.570Z,6.23
2023-04-12T14:34:11.951Z,6.37
2023-04-12T14:36:38.913Z,6.53
2023-04-12T14:39:09.266Z,6.30
2023-04-12T14:41:37.727Z,6.43
2023-04-12T14:44:05.316Z,6.60
2023-04-12T14:46:32.792Z,5.87
2023-04-12T14:49:01.771Z,7.70
2023-04-12T14:51:29.811Z,5.53
2023-04-12T14:53:57.425Z,5.83
2023-04-12T14:56:28.663Z,5.03
2023-04-12T14:58:56.921Z,5.00
2023-04-12T15:01:26.295Z,4.27
2023-04-12T15:03:53.937Z,4.00
2023-04-12T15:06:26.353Z,7.03
2023-04-12T15:08:57.563Z,4.47
2023-04-12T15:11:27.438Z,4.37
2023-04-12T15:13:55.313Z,6.20
2023-04-12T15:16:23.000Z,4.57
2023-04-12T15:18:51.947Z,3.67
2023-04-12T15:21:19.693Z,7.20
2023-04-12T15:23:47.539Z,4.17
2023-04-12T15:26:14.639Z,5.27
2023-04-12T15:28:42.839Z,4.27
2023-04-12T15:31:12.301Z,4.07
2023-04-12T15:33:39.205Z,4.13
2023-04-12T15:36:06.554Z,3.53
2023-04-12T15:38:41.756Z,4.00
2023-04-12T15:41:09.347Z,4.53
2023-04-12T15:43:36.513Z,5.73
2023-04-12T15:46:04.274Z,3.57
2023-04-12T15:48:31.296Z,3.53
2023-04-12T15:50:58.393Z,3.80
2023-04-12T15:53:27.683Z,3.97
2023-04-12T15:55:55.753Z,3.60
2023-04-12T15:58:24.134Z,3.70
2023-04-12T16:00:53.716Z,3.77
2023-04-12T16:03:23.411Z,3.10
2023-04-12T16:05:54.448Z,4.93
2023-04-12T16:08:22.505Z,3.00
2023-04-12T16:10:50.964Z,3.47
2023-04-12T16:13:18.800Z,4.20
2023-04-12T16:15:46.416Z,3.50
2023-04-12T16:18:14.433Z,3.70
2023-04-12T16:20:41.345Z,4.63
2023-04-12T16:23:08.709Z,4.50
2023-04-12T16:25:36.104Z,5.23
2023-04-12T16:28:03.313Z,4.17
2023-04-12T16:30:32.671Z,4.57
2023-04-12T16:32:59.866Z,4.50
2023-04-12T16:35:26.944Z,4.00
2023-04-12T16:37:55.125Z,4.30
2023-04-12T16:40:22.525Z,4.23
2023-04-12T16:42:49.479Z,3.90
2023-04-12T16:45:16.562Z,3.87
2023-04-12T16:47:46.305Z,5.13
2023-04-12T16:50:14.537Z,4.50
2023-04-12T16:52:42.080Z,4.13
2023-04-12T16:55:12.389Z,4.33
2023-04-12T16:57:41.000Z,4.00
2023-04-12T17:00:30.057Z,4.40
2023-04-12T17:02:57.181Z,4.83
2023-04-12T17:05:24.897Z,4.30
2023-04-12T17:07:54.231Z,5.57
2023-04-12T17:10:23.677Z,4.43
2023-04-12T17:12:55.383Z,5.80
2023-04-12T17:15:22.856Z,6.77
2023-04-12T17:17:54.352Z,6.53
2023-04-12T17:20:23.362Z,4.90
2023-04-12T17:22:51.178Z,7.63
2023-04-12T17:25:20.516Z,5.10
2023-04-12T17:27:48.348Z,5.97
2023-04-12T17:30:17.938Z,5.60
2023-04-12T17:32:48.474Z,5.63
2023-04-12T17:35:18.032Z,5.03
2023-04-12T17:37:45.901Z,6.90
2023-04-12T17:40:14.176Z,4.67
2023-04-12T17:42:43.814Z,5.87
2023-04-12T17:45:12.932Z,6.27
2023-04-12T17:47:42.999Z,5.33
2023-04-12T17:50:11.764Z,7.80
2023-04-12T17:52:39.189Z,6.20
2023-04-12T17:55:09.411Z,6.50
2023-04-12T17:57:36.734Z,6.53
2023-04-12T18:00:06.247Z,5.73
2023-04-12T18:02:33.520Z,7.20
2023-04-12T18:05:00.502Z,6.67
2023-04-12T18:07:28.572Z,7.10
2023-04-12T18:09:56.341Z,7.17
2023-04-12T18:12:23.433Z,7.57
2023-04-12T18:14:50.356Z,7.93
2023-04-12T18:17:17.133Z,6.97
2023-04-12T18:19:43.997Z,8.20
2023-04-12T18:22:11.165Z,8.50
2023-04-12T18:24:38.653Z,9.70
2023-04-12T18:27:07.299Z,10.17
2023-04-12T18:29:34.601Z,10.53
2023-04-12T18:32:01.640Z,10.13
2023-04-12T18:34:28.584Z,13.77
2023-04-12T18:36:55.596Z,11.97
2023-04-12T18:39:22.473Z,12.03
2023-04-12T18:41:49.615Z,14.30
2023-04-12T18:44:19.414Z,14.63
2023-04-12T18:46:46.669Z,13.53
2023-04-12T18:49:14.618Z,14.37
2023-04-12T18:51:43.020Z,14.90
2023-04-12T18:54:13.385Z,11.40
2023-04-12T18:56:42.559Z,8.90
2023-04-12T18:59:12.077Z,7.30
2023-04-12T19:01:39.062Z,7.67
2023-04-12T19:04:06.154Z,7.00
2023-04-12T19:06:33.471Z,7.00
2023-04-12T19:09:00.766Z,6.60
2023-04-12T19:11:28.103Z,7.90
2023-04-12T19:13:56.634Z,7.90
2023-04-12T19:16:24.848Z,8.33
2023-04-12T19:18:51.996Z,11.33
2023-04-12T19:21:18.959Z,10.67
2023-04-12T19:23:46.125Z,8.83
2023-04-12T19:26:13.102Z,8.70
2023-04-12T19:28:40.291Z,6.07
2023-04-12T19:31:10.593Z,7.47
2023-04-12T19:33:41.697Z,8.57
2023-04-12T19:36:08.881Z,8.47
2023-04-12T19:38:36.047Z,8.90
2023-04-12T19:41:03.014Z,9.73
2023-04-12T19:43:30.113Z,10.03
2023-04-12T19:45:57.874Z,7.90
2023-04-12T19:48:25.062Z,7.67
2023-04-12T19:50:52.371Z,6.23
2023-04-12T19:53:21.675Z,5.73
2023-04-12T19:55:48.704Z,6.47
2023-04-12T19:58:15.891Z,8.10
2023-04-12T20:00:42.798Z,6.63
2023-04-12T20:03:09.715Z,7.23
2023-04-12T20:05:36.899Z,6.17
2023-04-12T20:08:03.999Z,8.17
2023-04-12T20:10:30.991Z,7.70
2023-04-12T20:12:57.993Z,5.70
2023-04-12T20:15:25.659Z,9.10
2023-04-12T20:17:53.457Z,7.13
2023-04-12T20:20:20.829Z,5.43
2023-04-12T20:22:48.122Z,5.40
2023-04-12T20:25:16.688Z,3.63
2023-04-12T20:27:44.936Z,3.20
2023-04-12T20:30:17.175Z,5.23
2023-04-12T20:32:44.179Z,5.90
2023-04-12T20:35:13.473Z,8.17
2023-04-12T20:37:40.750Z,5.57
2023-04-12T20:40:09.508Z,7.83
2023-04-12T20:42:36.690Z,6.13
2023-04-12T20:45:03.943Z,5.90
2023-04-12T20:47:30.919Z,6.30
2023-04-12T20:49:57.970Z,6.00
2023-04-12T20:52:25.516Z,4.37
2023-04-12T20:54:53.775Z,6.73
2023-04-12T20:57:20.671Z,9.67
2023-04-12T20:59:47.723Z,5.03
2023-04-12T21:02:18.425Z,9.30
2023-04-12T21:04:46.076Z,9.73
2023-04-12T21:07:13.233Z,12.33
2023-04-12T21:09:40.388Z,7.90
2023-04-12T21:12:09.804Z,10.83
2023-04-12T21:14:37.918Z,12.70
2023-04-12T21:17:07.384Z,10.87
2023-04-12T21:19:41.960Z,10.20
2023-04-12T21:22:08.934Z,9.77
2023-04-12T21:24:38.436Z,15.90
2023-04-12T21:27:07.641Z,13.77
2023-04-12T21:29:37.649Z,8.27
2023-04-12T21:32:06.078Z,8.70
2023-04-12T21:34:34.177Z,9.33
2023-04-12T21:37:02.250Z,14.93
2023-04-12T21:39:29.278Z,12.40
2023-04-12T21:41:58.901Z,11.73
2023-04-12T21:44:26.961Z,14.43
2023-04-12T21:46:53.907Z,13.57
2023-04-12T21:49:20.729Z,11.23
2023-04-12T21:51:49.463Z,10.40
2023-04-12T21:54:16.914Z,11.07
2023-04-12T21:56:43.964Z,11.30
2023-04-12T21:59:11.117Z,8.33
2023-04-12T22:01:38.303Z,11.37
2023-04-12T22:04:05.436Z,7.63
2023-04-12T22:06:32.411Z,9.07
2023-04-12T22:09:02.683Z,12.43
2023-04-12T22:11:30.799Z,13.50
2023-04-12T22:13:58.462Z,12.23
2023-04-12T22:16:25.573Z,8.30
2023-04-12T22:18:53.069Z,10.17
2023-04-12T22:21:19.939Z,6.60
2023-04-12T22:23:47.050Z,10.53
2023-04-12T22:26:14.345Z,9.07
2023-04-12T22:28:41.552Z,8.93
2023-04-12T22:31:14.533Z,9.73
2023-04-12T22:33:41.969Z,9.50
2023-04-12T22:36:10.932Z,9.47
2023-04-12T22:38:38.391Z,13.63
2023-04-12T22:41:06.708Z,11.47
2023-04-12T22:43:42.184Z,14.20
2023-04-12T22:46:16.266Z,16.23
2023-04-12T22:48:44.365Z,13.73
2023-04-12T22:51:11.286Z,16.93
2023-04-12T22:53:38.982Z,14.33
2023-04-12T22:56:08.394Z,9.67
2023-04-12T22:58:37.314Z,13.80
2023-04-12T23:01:06.916Z,12.93
2023-04-12T23:03:34.251Z,11.90
2023-04-12T23:06:01.050Z,14.00
2023-04-12T23:08:29.374Z,12.47
2023-04-12T23:11:03.760Z,16.17
2023-04-12T23:13:35.367Z,13.00
2023-04-12T23:16:03.814Z,11.60
2023-04-12T23:18:30.962Z,21.20
2023-04-12T23:20:57.893Z,13.93
2023-04-12T23:23:27.778Z,18.77
2023-04-12T23:25:55.464Z,12.00
2023-04-12T23:28:24.473Z,14.43
2023-04-12T23:30:51.967Z,12.97
2023-04-12T23:33:20.930Z,15.97
2023-04-12T23:35:59.127Z,17.37
2023-04-12T23:38:35.288Z,19.37
2023-04-12T23:41:04.283Z,12.90
2023-04-12T23:43:32.849Z,15.10
2023-04-12T23:46:00.297Z,19.37
2023-04-12T23:48:27.666Z,15.57
2023-04-12T23:50:54.760Z,19.40
2023-04-12T23:53:21.845Z,21.63
2023-04-12T23:55:51.454Z,21.40
2023-04-12T23:58:18.879Z,17.40
